Terminal Aerodrome Forecast
Issued by NWS

Home | Current Version | Previous Version | Text Only | Print | Product List | Glossary On
Versions: 1 2 3 4 5 6 7 8 9 10 11 12 13 14
074
FTUS46 KMTR 240536
TAFMRY
TAF
KMRY 240536Z 2406/2506 31006KT P6SM SKC
     FM241000 10006KT P6SM FEW030
     FM241800 26010KT P6SM BKN150
     FM250300 25005KT P6SM SCT012 BKN150=

USA.gov is the U.S. government's official web portal to all federal, state and local government web resources and services.